Time;durP1;ratioP1;P1;durP2;ratioP2;P2;SDS_P1;SDS_P2;PMS_P1;PMS_P2;Temp;Humidity;BMP_temperature;BMP_pressure;BME280_temperature;BME280_humidity;BME280_pressure;Samples;Min_cycle;Max_cycle;Signal;HPM_P1;HPM_P2
2023/05/22 00:01:18;;;;;;;4.97;2.67;;;;;;;17.89;65.34;102150.94;5081472;28;20056;-72
2023/05/22 00:03:44;;;;;;;3.63;2.90;;;;;;;18.04;65.39;102182.28;5082071;28;20028;-72
2023/05/22 00:06:10;;;;;;;5.00;2.53;;;;;;;18.04;65.54;102182.28;5063654;28;20430;-72
2023/05/22 00:08:36;;;;;;;4.85;2.95;;;;;;;18.06;65.69;102180.19;5047680;28;20036;-72
2023/05/22 00:11:02;;;;;;;3.53;2.90;;;;;;;17.91;66.28;102176.03;5064384;28;20444;-72
2023/05/22 00:13:28;;;;;;;4.85;2.90;;;;;;;17.81;66.67;102160.16;5047259;28;20031;-73
2023/05/22 00:15:53;;;;;;;6.70;2.80;;;;;;;17.95;66.49;102171.84;5081383;28;20104;-72
2023/05/22 00:18:19;;;;;;;4.43;2.70;;;;;;;17.94;66.64;102164.72;5081566;28;20029;-72
2023/05/22 00:20:45;;;;;;;4.32;2.92;;;;;;;18.06;66.46;102179.34;5079072;28;20124;-72
2023/05/22 00:23:12;;;;;;;4.72;2.60;;;;;;;18.17;66.35;102177.81;5088349;28;20043;-72
2023/05/22 00:25:38;;;;;;;4.38;2.70;;;;;;;18.08;66.13;102150.84;5082616;28;20027;-72
2023/05/22 00:28:04;;;;;;;6.72;3.10;;;;;;;18.17;66.27;102181.38;5081805;28;20028;-71
2023/05/22 00:30:30;;;;;;;4.55;2.70;;;;;;;18.18;66.54;102169.47;5046438;28;20095;-72
2023/05/22 00:32:56;;;;;;;4.60;2.70;;;;;;;18.17;66.85;102169.66;5063789;28;20185;-72
2023/05/22 00:35:21;;;;;;;5.95;2.80;;;;;;;18.13;66.95;102166.53;5081045;28;20025;-72
2023/05/22 00:37:47;;;;;;;5.13;2.80;;;;;;;18.05;66.95;102147.72;5081262;28;20544;-72
2023/05/22 00:40:16;;;;;;;5.60;3.15;;;;;;;18.15;67.57;102156.25;5062861;28;20033;-71
2023/05/22 00:42:45;;;;;;;7.05;2.90;;;;;;;18.14;67.67;102151.84;5079415;28;20028;-72
2023/05/22 00:45:12;;;;;;;4.00;2.88;;;;;;;18.04;67.90;102140.56;5057571;28;20033;-72
2023/05/22 00:47:38;;;;;;;4.28;2.97;;;;;;;18.13;67.81;102163.81;5050946;28;20096;-72
2023/05/22 00:50:05;;;;;;;4.38;2.88;;;;;;;18.08;68.18;102159.03;5081188;28;20059;-72
2023/05/22 00:52:34;;;;;;;7.50;3.20;;;;;;;18.08;68.34;102156.28;5079509;28;20395;-72
2023/05/22 00:55:00;;;;;;;4.97;3.15;;;;;;;18.09;68.43;102157.13;5083338;28;20020;-72
2023/05/22 00:57:26;;;;;;;5.68;3.15;;;;;;;18.13;68.48;102158.34;5081034;28;20089;-72
2023/05/22 00:59:51;;;;;;;4.03;2.95;;;;;;;18.13;68.53;102158.34;5046397;28;20048;-72
2023/05/22 01:02:17;;;;;;;7.60;3.00;;;;;;;18.07;68.56;102151.03;5062639;28;20037;-71
2023/05/22 01:04:47;;;;;;;4.90;3.10;;;;;;;18.15;68.53;102158.16;5062756;28;20028;-72
2023/05/22 01:07:15;;;;;;;4.75;3.22;;;;;;;18.06;68.76;102158.38;5062881;28;20028;-72
2023/05/22 01:09:41;;;;;;;4.90;3.13;;;;;;;18.09;68.79;102170.75;5063453;28;20036;-72
2023/05/22 01:12:12;;;;;;;4.55;3.00;;;;;;;18.10;69.00;102164.22;5062471;28;20139;-73
2023/05/22 01:15:09;;;;;;;5.50;3.28;;;;;;;17.73;69.18;102106.75;5078759;28;20060;-72
2023/05/22 01:18:21;;;;;;;4.03;2.95;;;;;;;18.06;69.63;102160.28;5067196;28;20419;-72
2023/05/22 01:20:57;;;;;;;4.18;3.10;;;;;;;17.99;69.63;102145.84;5064703;28;20803;-72
2023/05/22 01:23:44;;;;;;;4.00;3.20;;;;;;;18.04;70.15;102156.91;5062323;28;20052;-72
2023/05/22 01:26:40;;;;;;;3.72;3.08;;;;;;;17.89;70.25;102134.59;5062723;28;20024;-72
2023/05/22 01:29:17;;;;;;;4.90;3.20;;;;;;;18.01;70.54;102160.06;5079987;28;20020;-72
2023/05/22 01:31:46;;;;;;;4.95;3.53;;;;;;;17.83;70.69;102137.09;5063019;28;20059;-72
2023/05/22 01:34:13;;;;;;;3.47;3.00;;;;;;;17.89;71.03;102143.59;5080631;28;20107;-72
2023/05/22 01:36:40;;;;;;;5.32;3.45;;;;;;;17.98;71.08;102158.66;5062075;28;20055;-72
2023/05/22 01:39:07;;;;;;;5.07;3.13;;;;;;;17.96;71.50;102149.00;5062265;28;20066;-72
2023/05/22 01:41:34;;;;;;;6.00;3.60;;;;;;;17.98;71.36;102149.59;5062128;28;20023;-72
2023/05/22 01:44:00;;;;;;;6.00;3.45;;;;;;;17.98;71.58;102161.38;5079982;28;20115;-72
2023/05/22 01:46:29;;;;;;;5.93;3.40;;;;;;;18.00;71.60;102161.13;5061954;28;20051;-72
2023/05/22 01:48:55;;;;;;;6.10;3.45;;;;;;;17.95;71.95;102155.50;5062210;28;20036;-72
2023/05/22 01:51:36;;;;;;;4.28;3.30;;;;;;;18.01;71.93;102152.75;5044505;28;20029;-72
2023/05/22 01:54:31;;;;;;;4.57;3.40;;;;;;;18.02;71.98;102153.59;5080457;28;20360;-72
2023/05/22 01:57:20;;;;;;;5.25;3.60;;;;;;;18.01;72.21;102151.91;5063385;28;20036;-72
2023/05/22 01:59:53;;;;;;;6.55;3.72;;;;;;;17.96;72.10;102140.84;5063666;28;20048;-72
2023/05/22 02:02:20;;;;;;;6.65;3.40;;;;;;;17.98;72.11;102146.88;5062528;28;20035;-72
2023/05/22 02:04:59;;;;;;;6.10;3.75;;;;;;;18.02;72.41;102157.16;5062251;28;20020;-72
2023/05/22 02:07:26;;;;;;;7.38;3.65;;;;;;;17.96;72.78;102154.47;5062676;28;20040;-72
2023/05/22 02:09:54;;;;;;;3.67;3.28;;;;;;;17.96;72.71;102149.00;5031227;28;20031;-72
2023/05/22 02:12:21;;;;;;;5.35;3.65;;;;;;;17.97;72.87;102154.22;5062284;28;20052;-72
2023/05/22 02:14:47;;;;;;;4.65;3.47;;;;;;;17.83;73.02;102126.22;5045668;28;20060;-72
2023/05/22 02:17:13;;;;;;;4.53;3.53;;;;;;;17.82;73.15;102130.00;5045511;28;20021;-72
2023/05/22 02:19:38;;;;;;;4.97;3.70;;;;;;;17.94;73.39;102151.09;5059589;28;20038;-73
2023/05/22 02:22:04;;;;;;;4.60;3.70;;;;;;;17.93;73.60;102146.72;5049613;28;20071;-72
2023/05/22 02:24:31;;;;;;;6.35;3.88;;;;;;;17.70;73.97;102114.50;5079530;28;20024;-72
2023/05/22 02:26:57;;;;;;;4.20;3.80;;;;;;;17.47;73.94;102076.91;5061343;28;20116;-72
2023/05/22 02:29:23;;;;;;;6.55;3.67;;;;;;;17.89;74.02;102140.88;5061675;28;20054;-72
2023/05/22 02:31:48;;;;;;;7.22;3.88;;;;;;;17.79;74.07;102127.69;5079133;28;20032;-72
2023/05/22 02:34:14;;;;;;;5.43;3.92;;;;;;;17.81;74.22;102133.78;5060998;28;20077;-72
2023/05/22 02:36:39;;;;;;;5.25;3.83;;;;;;;17.87;74.42;102145.69;5044476;28;20020;-72
2023/05/22 02:39:05;;;;;;;4.97;3.90;;;;;;;17.88;74.65;102146.50;5078767;28;20076;-72
2023/05/22 02:41:31;;;;;;;6.55;4.30;;;;;;;17.71;74.55;102121.63;5044071;28;20028;-72
2023/05/22 02:43:56;;;;;;;6.03;3.60;;;;;;;17.79;74.88;102138.59;5078340;28;20096;-72
2023/05/22 02:46:21;;;;;;;6.13;4.05;;;;;;;17.89;74.82;102146.31;5060361;28;20035;-72
2023/05/22 02:48:47;;;;;;;7.75;4.00;;;;;;;17.90;74.95;102144.41;5078945;28;20032;-72
2023/05/22 02:51:12;;;;;;;8.57;4.25;;;;;;;17.91;75.09;102143.34;5060395;28;20111;-72
2023/05/22 02:53:40;;;;;;;8.27;4.57;;;;;;;17.91;75.21;102146.09;5078984;28;20039;-72
2023/05/22 02:56:12;;;;;;;5.22;3.70;;;;;;;17.96;75.01;102138.13;5045555;28;20029;-72
2023/05/22 02:58:38;;;;;;;6.72;3.83;;;;;;;18.02;74.70;102139.97;5063323;28;20051;-72
2023/05/22 03:01:05;;;;;;;5.82;4.10;;;;;;;17.90;75.72;102144.41;5045762;28;20053;-72
2023/05/22 03:03:32;;;;;;;13.10;4.18;;;;;;;17.91;75.53;102137.91;5062531;28;20134;-72
2023/05/22 03:06:00;;;;;;;7.35;3.97;;;;;;;17.81;76.41;102144.66;5080225;28;20025;-72
2023/05/22 03:08:27;;;;;;;7.65;4.40;;;;;;;17.89;75.81;102134.59;5062717;28;20028;-72
2023/05/22 03:10:52;;;;;;;8.43;4.15;;;;;;;17.90;75.96;102133.53;5062106;28;20036;-72
2023/05/22 03:13:18;;;;;;;5.63;3.90;;;;;;;17.90;75.89;102114.47;5028553;28;20036;-73
2023/05/22 03:15:43;;;;;;;7.63;4.13;;;;;;;17.91;76.07;102133.28;5043374;28;20460;-72
2023/05/22 03:18:09;;;;;;;6.22;4.30;;;;;;;17.90;76.16;102123.47;5040223;28;20138;-71
2023/05/22 03:20:34;;;;;;;6.13;4.18;;;;;;;17.91;76.10;102133.28;5074184;28;20029;-72
2023/05/22 03:23:00;;;;;;;7.40;4.00;;;;;;;17.95;75.77;102111.94;5054938;28;20579;-72
2023/05/22 03:25:25;;;;;;;8.68;4.30;;;;;;;18.04;75.65;102133.25;5040072;28;20040;-72
2023/05/22 03:27:51;;;;;;;7.07;3.88;;;;;;;18.06;75.34;102119.41;5060237;28;20025;-72
2023/05/22 03:30:16;;;;;;;7.50;4.03;;;;;;;18.12;75.29;102126.72;5027868;28;20037;-73
2023/05/22 03:32:42;;;;;;;5.13;3.70;;;;;;;18.16;75.15;102124.41;5060295;28;20030;-72
2023/05/22 03:35:08;;;;;;;9.82;4.05;;;;;;;18.01;75.50;102106.47;5061029;28;20094;-72
2023/05/22 03:37:33;;;;;;;4.53;4.00;;;;;;;18.02;75.39;102112.75;5060875;28;20430;-72
2023/05/22 03:39:59;;;;;;;5.72;4.22;;;;;;;17.75;75.29;102069.25;5044197;28;20106;-72
2023/05/22 03:42:25;;;;;;;5.53;3.90;;;;;;;17.87;75.44;102076.78;5044630;28;20040;-72
2023/05/22 03:44:50;;;;;;;5.68;4.20;;;;;;;18.28;74.87;102128.94;5027427;28;20510;-72
2023/05/22 03:47:16;;;;;;;5.80;3.90;;;;;;;18.37;74.57;102131.41;5060329;28;20508;-72
2023/05/22 03:49:41;;;;;;;9.05;4.18;;;;;;;18.37;74.48;102120.50;5044119;28;20040;-72
2023/05/22 03:52:10;;;;;;;6.07;3.97;;;;;;;18.38;74.79;102116.75;5044177;28;20036;-72
2023/05/22 03:54:35;;;;;;;6.57;3.90;;;;;;;18.38;74.77;102111.28;5062281;28;20036;-72
2023/05/22 03:57:01;;;;;;;5.43;3.95;;;;;;;18.51;74.50;102128.41;5062114;28;20035;-72
2023/05/22 03:59:26;;;;;;;5.68;4.20;;;;;;;18.37;74.72;102104.16;5079762;28;20076;-72
2023/05/22 04:01:52;;;;;;;4.97;4.38;;;;;;;18.60;74.54;102123.50;5062400;28;20054;-73
2023/05/22 04:04:17;;;;;;;7.05;4.13;;;;;;;18.76;74.10;102127.63;5044008;28;20093;-72
2023/05/22 04:06:43;;;;;;;6.65;4.20;;;;;;;18.81;74.13;102126.94;5044225;28;20036;-72
2023/05/22 04:09:10;;;;;;;5.70;4.10;;;;;;;18.66;74.15;102103.53;5076639;28;20021;-72
2023/05/22 04:11:38;;;;;;;5.75;3.83;;;;;;;18.58;74.63;102116.63;5040779;28;20031;-73
2023/05/22 04:14:04;;;;;;;4.30;3.78;;;;;;;18.21;76.29;102116.41;5074264;28;20598;-72
2023/05/22 04:16:29;;;;;;;8.60;3.70;;;;;;;18.33;75.78;102113.81;5076170;28;20052;-72
2023/05/22 04:18:55;;;;;;;7.05;4.10;;;;;;;18.44;75.35;102121.28;5043970;28;20029;-72
2023/05/22 04:21:22;;;;;;;9.05;4.07;;;;;;;18.51;75.49;102122.13;5059884;28;20044;-72
2023/05/22 04:23:48;;;;;;;8.55;4.22;;;;;;;18.69;74.72;102121.34;5060058;28;20115;-71
2023/05/22 04:26:14;;;;;;;6.80;3.90;;;;;;;18.94;73.48;102116.78;5060701;28;20162;-73
2023/05/22 04:28:44;;;;;;;7.07;3.72;;;;;;;18.97;72.88;102089.06;5082703;28;20479;-73
2023/05/22 04:31:13;;;;;;;6.07;4.20;;;;;;;19.40;72.23;102114.66;5081427;28;20020;-74
2023/05/22 04:33:38;;;;;;;5.20;3.60;;;;;;;19.57;71.84;102109.41;5082335;28;20041;-73
2023/05/22 04:36:05;;;;;;;5.55;3.78;;;;;;;19.60;71.13;102104.38;5051127;28;20052;-73
2023/05/22 04:38:35;;;;;;;6.57;3.50;;;;;;;19.79;70.44;102107.94;5087862;28;20024;-73
2023/05/22 04:41:02;;;;;;;10.15;3.72;;;;;;;19.87;70.03;102102.19;5066446;28;20017;-77
2023/05/22 04:43:28;;;;;;;6.30;3.83;;;;;;;20.28;68.34;102105.19;5084573;28;20070;-75
2023/05/22 04:45:56;;;;;;;6.57;3.50;;;;;;;20.61;66.57;102074.66;5051025;28;20044;-75
2023/05/22 04:48:22;;;;;;;7.07;3.40;;;;;;;20.87;65.46;102098.00;5049283;28;20063;-78
2023/05/22 04:50:50;;;;;;;7.13;3.45;;;;;;;20.70;65.85;102097.03;5045301;28;20024;-73
2023/05/22 04:53:16;;;;;;;4.35;3.15;;;;;;;20.55;66.05;102102.94;5048332;28;20029;-75
2023/05/22 04:55:42;;;;;;;7.47;3.53;;;;;;;20.30;66.42;102081.22;5068575;28;20028;-77
2023/05/22 04:58:08;;;;;;;6.05;3.22;;;;;;;20.45;66.32;102094.44;5072609;28;20028;-74
2023/05/22 05:00:34;;;;;;;5.32;3.40;;;;;;;20.53;65.86;102091.38;5057416;28;20053;-72
2023/05/22 05:02:59;;;;;;;6.78;3.50;;;;;;;20.58;65.42;102092.34;5042230;28;20499;-73
2023/05/22 05:05:25;;;;;;;8.65;3.35;;;;;;;20.49;65.33;102087.41;5074131;28;20028;-73
2023/05/22 05:07:57;;;;;;;5.10;3.38;;;;;;;20.49;65.06;102076.47;5081033;28;20029;-75
2023/05/22 05:10:23;;;;;;;5.65;3.05;;;;;;;20.55;64.41;102081.06;5080604;28;20073;-72
2023/05/22 05:12:48;;;;;;;10.95;3.65;;;;;;;20.64;63.81;102085.94;5066463;28;20044;-72
2023/05/22 05:15:14;;;;;;;8.65;3.38;;;;;;;20.53;63.44;102085.91;5079777;28;20029;-73
2023/05/22 05:17:39;;;;;;;8.38;3.28;;;;;;;20.40;63.18;102037.72;5064048;28;20029;-72
2023/05/22 05:20:06;;;;;;;10.48;3.60;;;;;;;20.71;63.05;102093.22;5063922;28;20111;-72
2023/05/22 05:22:32;;;;;;;9.65;3.38;;;;;;;20.83;62.56;102097.66;5080201;28;20048;-73
2023/05/22 05:24:57;;;;;;;9.65;3.10;;;;;;;20.86;62.00;102082.63;5080968;28;20035;-73
2023/05/22 05:27:23;;;;;;;9.30;3.42;;;;;;;21.01;61.61;102093.13;5079383;28;20032;-73
2023/05/22 05:29:48;;;;;;;9.65;3.45;;;;;;;20.98;61.53;102080.75;5077954;28;20046;-72
2023/05/22 05:32:14;;;;;;;11.80;3.22;;;;;;;21.08;61.05;102086.47;5077558;28;20109;-75
2023/05/22 05:34:40;;;;;;;19.38;4.15;;;;;;;21.13;60.64;102083.03;5062284;28;20043;-71
2023/05/22 05:37:06;;;;;;;11.25;3.47;;;;;;;21.19;59.83;102067.53;5077672;28;20052;-71
2023/05/22 05:39:32;;;;;;;16.00;3.88;;;;;;;21.22;59.45;102073.34;5055859;28;20036;-72
2023/05/22 05:41:57;;;;;;;14.27;3.95;;;;;;;21.41;59.44;102082.28;5075128;28;20063;-72
2023/05/22 05:44:23;;;;;;;8.68;3.80;;;;;;;21.53;58.86;102090.50;5077602;28;20040;-72
2023/05/22 05:46:48;;;;;;;9.93;3.00;;;;;;;21.56;57.81;102090.84;5079653;28;20028;-73
2023/05/22 05:49:14;;;;;;;8.75;3.13;;;;;;;21.68;57.79;102089.97;5079134;28;20077;-73
2023/05/22 05:51:39;;;;;;;10.13;3.03;;;;;;;21.68;56.64;102092.72;5063909;28;20029;-72
2023/05/22 05:54:05;;;;;;;9.50;3.10;;;;;;;21.86;56.16;102097.22;5046627;28;20024;-71
2023/05/22 05:56:30;;;;;;;11.10;3.25;;;;;;;22.05;55.63;102088.56;5078683;28;20032;-73
2023/05/22 05:58:56;;;;;;;14.20;3.90;;;;;;;22.11;55.37;102092.22;5076633;28;20062;-72
2023/05/22 06:01:25;;;;;;;8.55;3.30;;;;;;;22.12;55.43;102091.16;5077591;28;20045;-72
2023/05/22 06:03:51;;;;;;;9.55;3.40;;;;;;;22.20;54.80;102098.19;5074340;28;20063;-72
2023/05/22 06:06:16;;;;;;;6.97;3.00;;;;;;;22.28;54.26;102095.03;5078278;28;20064;-72
2023/05/22 06:08:43;;;;;;;6.50;2.97;;;;;;;22.52;54.00;102098.50;5083379;28;20021;-71
2023/05/22 06:11:08;;;;;;;6.70;2.92;;;;;;;22.48;53.84;102097.31;5082366;28;20036;-71
2023/05/22 06:13:34;;;;;;;10.35;3.40;;;;;;;22.50;53.65;102085.00;5078923;28;20035;-72
2023/05/22 06:16:00;;;;;;;9.30;3.38;;;;;;;22.54;53.44;102085.34;5074915;28;20020;-71
2023/05/22 06:18:25;;;;;;;7.07;3.08;;;;;;;22.52;53.17;102088.34;5074292;28;20029;-72
2023/05/22 06:20:52;;;;;;;6.20;3.28;;;;;;;22.58;53.22;102091.16;5041870;28;20041;-71
2023/05/22 06:23:17;;;;;;;5.88;3.05;;;;;;;22.65;53.44;102083.59;5076842;28;20031;-71
2023/05/22 06:25:43;;;;;;;4.95;2.92;;;;;;;22.70;53.01;102083.69;5077834;28;20028;-72
2023/05/22 06:28:09;;;;;;;4.10;2.65;;;;;;;22.93;52.40;102083.56;5076480;28;20012;-72
2023/05/22 06:30:35;;;;;;;5.30;3.10;;;;;;;23.17;51.78;102086.09;5077856;28;20029;-72
2023/05/22 06:33:00;;;;;;;5.88;3.20;;;;;;;23.28;51.23;102076.06;5060101;28;20028;-71
2023/05/22 06:35:26;;;;;;;5.80;3.10;;;;;;;23.41;51.21;102072.97;5060032;28;20120;-72
2023/05/22 06:37:51;;;;;;;4.13;2.80;;;;;;;23.63;50.75;102078.47;5053439;28;20492;-71
2023/05/22 06:40:17;;;;;;;9.55;3.10;;;;;;;24.00;49.50;102073.16;5039655;28;20032;-72
2023/05/22 06:42:43;;;;;;;5.28;3.08;;;;;;;24.45;48.35;102071.16;5061949;28;20036;-73
2023/05/22 06:45:09;;;;;;;4.50;2.78;;;;;;;24.84;47.81;102066.25;5066897;28;20013;-72
2023/05/22 06:47:35;;;;;;;11.73;3.28;;;;;;;25.22;46.74;102069.81;5056473;28;20032;-71
2023/05/22 06:50:00;;;;;;;5.05;2.95;;;;;;;25.52;45.52;102058.13;5057909;28;20044;-72
2023/05/22 06:52:25;;;;;;;5.57;2.83;;;;;;;25.71;44.95;102056.53;5059336;28;20028;-73
2023/05/22 06:54:51;;;;;;;5.22;2.65;;;;;;;25.96;44.31;102061.34;5076813;28;20036;-73
2023/05/22 06:57:16;;;;;;;4.15;2.70;;;;;;;26.04;43.67;102070.19;5071442;28;20041;-70
2023/05/22 06:59:42;;;;;;;5.88;2.47;;;;;;;26.02;44.02;102064.91;5056841;28;20518;-72
2023/05/22 07:02:07;;;;;;;5.85;2.50;;;;;;;25.82;43.47;102062.94;5065425;28;20059;-72
2023/05/22 07:04:33;;;;;;;8.27;2.88;;;;;;;25.85;43.41;102061.56;5039309;28;20047;-71
2023/05/22 07:06:59;;;;;;;4.75;2.55;;;;;;;25.89;43.09;102054.41;5053370;28;20100;-71
2023/05/22 07:09:24;;;;;;;5.07;2.90;;;;;;;26.00;42.64;102061.63;5056137;28;20540;-74
2023/05/22 07:11:50;;;;;;;10.68;2.60;;;;;;;26.10;42.32;102064.41;5041680;28;20083;-73
2023/05/22 07:14:16;;;;;;;4.53;2.42;;;;;;;26.02;41.53;102056.66;5040646;28;20123;-73
2023/05/22 07:16:42;;;;;;;6.50;2.83;;;;;;;26.53;41.08;102056.75;5058218;28;20071;-73
2023/05/22 07:19:08;;;;;;;5.03;2.40;;;;;;;26.92;40.35;102054.22;5041835;28;20092;-73
2023/05/22 07:21:34;;;;;;;4.35;2.22;;;;;;;27.17;39.48;102044.22;5066207;28;20059;-74
2023/05/22 07:24:07;;;;;;;4.15;2.47;;;;;;;27.36;38.89;102047.22;5068792;28;20025;-72
2023/05/22 07:26:36;;;;;;;5.13;2.60;;;;;;;27.32;38.12;102032.31;5058483;28;20228;-73
2023/05/22 07:29:03;;;;;;;9.15;2.40;;;;;;;27.35;37.23;102051.06;5062418;28;20509;-72
2023/05/22 07:31:30;;;;;;;7.72;2.50;;;;;;;27.46;37.17;102051.88;5076668;28;20039;-72
2023/05/22 07:33:56;;;;;;;4.40;2.35;;;;;;;27.43;36.98;102047.75;5076839;28;20028;-72
2023/05/22 07:36:21;;;;;;;7.72;2.63;;;;;;;27.35;38.14;102049.16;5076885;28;20039;-72
2023/05/22 07:38:47;;;;;;;11.75;3.33;;;;;;;27.23;39.40;102023.78;5076729;28;20040;-73
2023/05/22 07:41:12;;;;;;;12.05;3.22;;;;;;;26.83;41.46;102042.09;5061947;28;20032;-72
2023/05/22 07:43:38;;;;;;;17.90;3.10;;;;;;;26.48;42.51;102048.44;5063730;28;20774;-72
2023/05/22 07:46:05;;;;;;;6.53;3.05;;;;;;;25.97;42.43;102029.91;5041836;28;20477;-72
2023/05/22 07:48:30;;;;;;;9.02;3.10;;;;;;;26.13;43.79;102041.78;5060364;28;20075;-72
2023/05/22 07:50:56;;;;;;;8.10;3.20;;;;;;;25.17;43.71;102031.25;5061516;28;20416;-71
2023/05/22 07:53:22;;;;;;;6.72;3.05;;;;;;;24.89;44.38;102049.75;5022489;28;20049;-73
2023/05/22 07:55:47;;;;;;;4.72;2.80;;;;;;;24.64;45.29;102039.41;5060792;28;20505;-72
2023/05/22 07:58:13;;;;;;;5.65;2.83;;;;;;;24.22;46.74;102042.03;5042855;28;20097;-73
2023/05/22 08:00:39;;;;;;;4.82;2.97;;;;;;;24.54;47.58;102058.59;5073873;28;20049;-72
2023/05/22 08:03:04;;;;;;;6.82;2.75;;;;;;;24.42;48.05;102055.19;5064020;28;20052;-72
2023/05/22 08:05:30;;;;;;;6.50;3.30;;;;;;;24.47;47.62;102046.97;5047791;28;20031;-72
2023/05/22 08:07:55;;;;;;;5.75;2.72;;;;;;;24.58;46.81;102041.28;5048076;28;20028;-72
2023/05/22 08:10:21;;;;;;;12.68;3.15;;;;;;;24.50;45.88;102046.44;5047724;28;20021;-72
2023/05/22 08:12:46;;;;;;;5.25;2.78;;;;;;;24.91;44.96;102047.59;5064863;28;20043;-72
2023/05/22 08:15:12;;;;;;;6.75;2.65;;;;;;;24.85;44.44;102041.19;5082838;28;20028;-72
2023/05/22 08:17:37;;;;;;;7.43;2.58;;;;;;;25.25;43.05;102041.75;5066092;28;20029;-72
2023/05/22 08:20:05;;;;;;;4.75;2.40;;;;;;;25.59;42.04;102042.16;5083930;28;20024;-71
2023/05/22 08:22:31;;;;;;;6.72;2.38;;;;;;;25.73;41.61;102037.81;5084230;28;20017;-72
2023/05/22 08:24:56;;;;;;;7.28;2.40;;;;;;;26.18;39.50;102039.03;5065518;28;20051;-72
2023/05/22 08:27:22;;;;;;;4.43;2.35;;;;;;;26.45;39.14;102024.13;5066309;28;20032;-72
2023/05/22 08:29:47;;;;;;;6.53;2.50;;;;;;;26.86;38.08;102035.19;5064256;28;20028;-72
2023/05/22 08:32:14;;;;;;;3.30;2.20;;;;;;;27.03;37.51;102037.63;5087075;28;20052;-72
2023/05/22 08:34:40;;;;;;;6.28;2.25;;;;;;;27.27;37.38;102029.56;5082542;28;20031;-73
2023/05/22 08:37:08;;;;;;;4.78;2.15;;;;;;;27.45;36.95;102033.63;5082876;28;20055;-72
2023/05/22 08:39:33;;;;;;;4.10;2.25;;;;;;;27.43;36.55;102036.69;5082632;28;20043;-72
2023/05/22 08:42:02;;;;;;;11.63;2.70;;;;;;;27.49;36.40;102031.97;5082716;28;20033;-72
2023/05/22 08:44:27;;;;;;;5.22;2.25;;;;;;;27.37;36.68;102035.03;5066376;28;20035;-72
2023/05/22 08:46:55;;;;;;;4.97;2.22;;;;;;;27.44;36.68;102031.97;5083704;28;20029;-72
2023/05/22 08:49:21;;;;;;;7.15;2.45;;;;;;;27.60;36.68;102030.78;5046532;28;20039;-72
2023/05/22 08:51:54;;;;;;;5.40;2.38;;;;;;;27.78;36.29;102032.09;5083697;28;20119;-73
2023/05/22 08:54:22;;;;;;;5.43;2.72;;;;;;;27.76;35.67;102031.53;5066012;28;20020;-72
2023/05/22 08:56:48;;;;;;;7.47;2.35;;;;;;;27.66;36.09;102026.91;5083768;28;20415;-72
2023/05/22 08:59:15;;;;;;;7.28;2.30;;;;;;;27.79;35.68;102029.06;5083833;28;20087;-72
2023/05/22 09:01:40;;;;;;;4.18;2.20;;;;;;;27.83;35.73;102029.31;5065895;28;20163;-72
2023/05/22 09:04:06;;;;;;;3.00;2.17;;;;;;;27.82;35.88;102025.72;5084014;28;20539;-72
2023/05/22 09:06:31;;;;;;;9.73;2.40;;;;;;;27.83;35.95;102024.59;5048785;28;20027;-73
2023/05/22 09:08:58;;;;;;;2.83;1.95;;;;;;;27.59;35.75;102026.38;5083729;28;20025;-72
2023/05/22 09:11:25;;;;;;;7.25;2.97;;;;;;;27.41;35.56;102003.78;5083692;28;20025;-72
2023/05/22 09:13:50;;;;;;;3.70;2.30;;;;;;;27.23;35.66;102025.72;5083151;28;20103;-72
2023/05/22 09:16:17;;;;;;;2.67;1.98;;;;;;;27.20;36.27;102026.28;5065065;28;20056;-72
2023/05/22 09:18:43;;;;;;;4.35;2.20;;;;;;;27.41;36.83;102019.53;5068540;28;20459;-72
2023/05/22 09:21:10;;;;;;;5.47;2.30;;;;;;;26.70;36.59;101985.50;5052919;28;20040;-73
2023/05/22 09:23:36;;;;;;;6.35;2.38;;;;;;;26.18;38.63;102016.94;5084317;28;20028;-73
2023/05/22 09:26:02;;;;;;;5.00;2.60;;;;;;;25.29;39.37;102021.63;5048851;28;20028;-72
2023/05/22 09:28:36;;;;;;;6.38;2.50;;;;;;;24.61;39.61;102021.50;5031227;28;20033;-72
2023/05/22 09:31:02;;;;;;;5.40;2.80;;;;;;;24.18;45.26;102021.66;5065317;28;20085;-72
2023/05/22 09:33:28;;;;;;;6.13;2.90;;;;;;;23.37;48.05;102006.72;5047123;28;20024;-72
2023/05/22 09:35:54;;;;;;;5.20;2.80;;;;;;;22.91;51.62;102018.97;5048791;28;20033;-72
2023/05/22 09:38:28;;;;;;;7.38;3.10;;;;;;;22.95;51.14;102026.50;5089317;28;20050;-71
2023/05/22 09:40:55;;;;;;;6.00;3.15;;;;;;;22.63;52.45;102018.00;5082146;28;20021;-72
2023/05/22 09:43:22;;;;;;;5.13;2.58;;;;;;;22.43;52.08;102013.03;5079631;28;20032;-73
2023/05/22 09:45:48;;;;;;;5.55;3.40;;;;;;;22.11;58.47;102011.88;5064678;28;20029;-71
2023/05/22 09:48:16;;;;;;;3.92;3.17;;;;;;;22.02;58.66;102016.97;5064296;28;20028;-72
2023/05/22 09:50:47;;;;;;;6.35;3.00;;;;;;;21.66;57.83;101999.00;5060280;28;20557;-73
2023/05/22 09:53:15;;;;;;;4.55;3.10;;;;;;;21.75;60.19;102016.69;5063091;28;20103;-72
2023/05/22 09:55:42;;;;;;;4.05;2.78;;;;;;;21.49;59.61;102002.53;5082132;28;20538;-72
2023/05/22 09:58:12;;;;;;;7.60;3.10;;;;;;;21.95;59.36;102006.16;5064558;28;20088;-72
2023/05/22 10:00:39;;;;;;;5.75;2.95;;;;;;;22.30;57.58;102018.00;5081626;28;20150;-71
2023/05/22 10:03:16;;;;;;;4.43;2.80;;;;;;;22.11;56.50;102011.88;5063935;28;20032;-72
2023/05/22 10:05:49;;;;;;;5.07;3.28;;;;;;;22.18;55.99;102007.09;5067778;28;20025;-72
2023/05/22 10:08:19;;;;;;;4.78;2.92;;;;;;;22.32;53.79;102004.88;5066775;28;20024;-71
2023/05/22 10:10:51;;;;;;;4.78;3.28;;;;;;;22.43;53.50;102002.06;5081800;28;20024;-71
2023/05/22 10:13:17;;;;;;;6.95;2.97;;;;;;;22.56;51.41;102000.06;5064611;28;20025;-71
2023/05/22 10:15:43;;;;;;;4.78;2.70;;;;;;;22.93;49.52;101998.47;5062767;28;20020;-72
2023/05/22 10:18:08;;;;;;;5.15;2.67;;;;;;;22.83;48.59;102002.94;5063780;28;20032;-71
2023/05/22 10:20:34;;;;;;;3.20;2.38;;;;;;;22.62;48.56;101966.16;5046821;28;20055;-71
2023/05/22 10:23:02;;;;;;;8.43;2.50;;;;;;;22.90;48.20;101993.44;5046745;28;20124;-72
2023/05/22 10:25:29;;;;;;;6.30;2.53;;;;;;;22.85;48.58;101989.81;5062851;28;20016;-72
2023/05/22 10:27:56;;;;;;;3.75;2.70;;;;;;;22.76;49.59;101983.91;5080420;28;20149;-72
2023/05/22 10:30:24;;;;;;;5.25;2.63;;;;;;;22.85;50.13;101987.06;5063122;28;20074;-71
2023/05/22 10:33:01;;;;;;;5.38;2.70;;;;;;;22.75;48.99;101977.59;5081095;28;20415;-72
2023/05/22 10:35:37;;;;;;;5.97;2.78;;;;;;;22.68;48.42;101981.59;5080472;28;20024;-72
2023/05/22 10:38:09;;;;;;;5.07;2.58;;;;;;;22.39;49.26;101986.38;5061981;28;20024;-72
2023/05/22 10:40:35;;;;;;;4.85;2.45;;;;;;;22.25;48.37;101972.13;5084599;28;20047;-71
2023/05/22 10:43:03;;;;;;;3.45;2.50;;;;;;;22.03;48.05;101964.63;5046065;28;20025;-72
2023/05/22 10:45:29;;;;;;;4.15;2.50;;;;;;;21.92;47.90;101962.78;5062678;28;20024;-71
2023/05/22 10:48:01;;;;;;;6.93;2.58;;;;;;;21.96;48.19;101949.44;5063250;28;20448;-72
2023/05/22 10:50:27;;;;;;;5.75;2.85;;;;;;;21.92;47.20;101954.56;5080869;28;20032;-72
2023/05/22 10:53:25;;;;;;;5.15;2.50;;;;;;;21.86;46.18;101946.50;5063582;28;20028;-71
2023/05/22 10:55:53;;;;;;;3.70;2.25;;;;;;;21.83;46.93;101942.34;5087719;28;20032;-71
2023/05/22 10:58:29;;;;;;;6.18;2.53;;;;;;;21.73;46.70;101940.25;5067904;28;20021;-72
2023/05/22 11:01:19;;;;;;;3.38;2.28;;;;;;;21.63;46.14;101950.19;5081434;28;20075;-72
2023/05/22 11:03:53;;;;;;;3.90;2.40;;;;;;;21.64;48.25;101936.25;5063516;28;20038;-71
2023/05/22 11:06:31;;;;;;;4.03;2.15;;;;;;;21.67;47.53;101941.22;5080944;28;20017;-72
2023/05/22 11:08:57;;;;;;;4.60;2.45;;;;;;;21.87;47.68;101937.19;5063031;28;20032;-71
2023/05/22 11:11:26;;;;;;;3.15;2.40;;;;;;;21.67;47.74;101910.28;5080650;28;20032;-72
2023/05/22 11:14:00;;;;;;;4.93;2.30;;;;;;;21.86;46.84;101927.31;5075090;28;20032;-72
2023/05/22 11:16:30;;;;;;;3.33;2.38;;;;;;;21.90;46.29;101921.09;5061696;28;20035;-72
2023/05/22 11:19:08;;;;;;;4.88;2.42;;;;;;;21.87;45.10;101918.84;5080430;28;20055;-72
2023/05/22 11:21:41;;;;;;;3.92;2.10;;;;;;;21.71;44.50;101911.44;5061828;28;20103;-72
2023/05/22 11:24:07;;;;;;;3.75;2.30;;;;;;;21.59;46.62;101903.28;5063342;28;20400;-72
2023/05/22 11:26:32;;;;;;;3.55;2.50;;;;;;;21.63;46.74;101909.94;5066476;28;20090;-72